Walters, Minnesota
Current Conditions -  °F | °C
As of 8:13 AM on Saturday 22 Nov 2014 (Local Time) from KAEL Reporting Station
Moderate Fog Moderate Fog  
Wind Chill: 28°   Ceiling: 100
Heat Index: 36°   Visibility: 0.25mi
Dew Point: 36°   Wind: 10mph
Humidity: 100%   Direction: 200°SSW
Pressure: 29.8"   Gusts: 16mph
Location:  43.7464°N, 93.7488°W
Report Text: KAEL 221413Z AUTO 20009G14KT 1/4SM FG OVC001 02/02 A2980 RMK AO2
Loading
Personal Weather Stations






























Interactive Weather Map New forecast layout! Learn more

10-Day Weather Forecast

Advertisements
Track Severe Weather on mobile